createdAt,value
2022-09-10T00:01:29.421Z,6.55
2022-09-10T00:03:57.842Z,2.25
2022-09-10T00:06:27.977Z,3.30
2022-09-10T00:08:57.831Z,3.60
2022-09-10T00:11:31.872Z,5.28
2022-09-10T00:14:02.047Z,4.60
2022-09-10T00:16:33.315Z,4.60
2022-09-10T00:19:02.753Z,4.95
2022-09-10T00:21:32.090Z,4.72
2022-09-10T00:24:00.375Z,3.38
2022-09-10T00:26:30.592Z,4.53
2022-09-10T00:29:00.214Z,4.70
2022-09-10T00:31:30.760Z,4.55
2022-09-10T00:34:01.857Z,4.43
2022-09-10T00:36:32.931Z,4.25
2022-09-10T00:39:03.516Z,5.63
2022-09-10T00:41:32.117Z,2.42
2022-09-10T00:44:02.478Z,4.32
2022-09-10T00:46:38.000Z,3.80
2022-09-10T00:49:14.530Z,6.40
2022-09-10T00:51:44.970Z,3.05
2022-09-10T00:54:14.130Z,5.40
2022-09-10T00:56:43.101Z,2.78
2022-09-10T00:59:14.265Z,2.75
2022-09-10T02:14:39.244Z,4.95
2022-09-10T02:17:21.627Z,5.57
2022-09-10T02:19:52.466Z,3.15
2022-09-10T02:22:23.745Z,3.42
2022-09-10T02:24:52.985Z,4.22
2022-09-10T02:27:21.083Z,3.35
2022-09-10T02:29:50.508Z,2.90
2022-09-10T02:32:18.343Z,2.67
2022-09-10T02:34:46.167Z,5.43
2022-09-10T02:37:13.900Z,2.65
2022-09-10T02:39:42.669Z,5.25
2022-09-10T02:42:10.515Z,3.88
2022-09-10T02:44:38.468Z,3.63
2022-09-10T02:47:08.364Z,5.57
2022-09-10T02:49:37.103Z,2.05
2022-09-10T02:52:06.445Z,5.57
2022-09-10T02:54:36.305Z,2.58
2022-09-10T02:57:04.419Z,2.92
2022-09-10T02:59:32.682Z,3.90
2022-09-10T03:02:00.930Z,4.15
2022-09-10T03:04:30.140Z,3.63
2022-09-10T03:06:58.240Z,4.05
2022-09-10T03:09:28.831Z,4.30
2022-09-10T03:11:56.822Z,2.38
2022-09-10T03:14:25.762Z,2.20
2022-09-10T03:16:53.560Z,3.75
2022-09-10T03:19:21.509Z,5.65
2022-09-10T03:21:50.996Z,5.75
2022-09-10T03:24:18.881Z,2.70
2022-09-10T03:26:47.241Z,2.95
2022-09-10T03:29:17.108Z,3.53
2022-09-10T03:31:46.674Z,3.03
2022-09-10T03:34:16.482Z,2.92
2022-09-10T03:36:47.630Z,3.10
2022-09-10T03:39:18.751Z,3.15
2022-09-10T03:41:47.833Z,3.90
2022-09-10T03:44:17.161Z,4.35
2022-09-10T03:46:45.639Z,3.00
2022-09-10T03:49:17.211Z,3.83
2022-09-10T03:51:45.171Z,2.25
2022-09-10T03:54:16.133Z,2.03
2022-09-10T03:56:46.169Z,2.40
2022-09-10T03:59:14.923Z,1.80
2022-09-10T04:01:43.682Z,3.83
2022-09-10T04:04:12.793Z,1.30
2022-09-10T04:06:40.676Z,3.65
2022-09-10T04:09:08.840Z,4.05
2022-09-10T04:11:36.902Z,3.28
2022-09-10T04:14:06.147Z,3.10
2022-09-10T04:16:37.350Z,2.85
2022-09-10T04:19:07.445Z,2.30
2022-09-10T04:21:36.400Z,6.22
2022-09-10T04:24:04.249Z,3.30
2022-09-10T04:26:32.218Z,4.07
2022-09-10T04:29:00.292Z,2.47
2022-09-10T04:31:29.569Z,4.10
2022-09-10T04:34:02.318Z,5.00
2022-09-10T04:36:31.768Z,4.95
2022-09-10T04:38:59.823Z,3.33
2022-09-10T04:41:27.961Z,2.10
2022-09-10T04:43:56.049Z,2.13
2022-09-10T04:46:24.667Z,4.75
2022-09-10T04:48:56.018Z,1.90
2022-09-10T04:51:25.575Z,5.00
2022-09-10T04:53:55.351Z,3.30
2022-09-10T04:56:27.666Z,3.97
2022-09-10T04:58:56.272Z,2.80
2022-09-10T05:01:24.995Z,2.13
2022-09-10T05:03:56.011Z,3.00
2022-09-10T05:06:24.438Z,3.15
2022-09-10T05:08:52.267Z,2.88
2022-09-10T05:11:20.599Z,3.10
2022-09-10T05:13:48.835Z,7.00
2022-09-10T05:16:21.247Z,5.13
2022-09-10T05:18:49.317Z,3.08
2022-09-10T05:21:20.288Z,4.15
2022-09-10T05:23:48.167Z,2.75
2022-09-10T05:26:16.383Z,3.70
2022-09-10T05:28:44.492Z,4.18
2022-09-10T05:31:17.247Z,2.83
2022-09-10T05:33:46.201Z,2.15
2022-09-10T05:36:14.674Z,3.90
2022-09-10T05:38:46.350Z,2.30
2022-09-10T05:41:15.506Z,3.75
2022-09-10T05:43:49.319Z,2.65
2022-09-10T05:46:17.494Z,4.10
2022-09-10T05:48:49.742Z,4.30
2022-09-10T05:51:19.751Z,2.75
2022-09-10T05:53:50.986Z,5.57
2022-09-10T05:56:20.491Z,2.80
2022-09-10T05:58:48.364Z,2.30
2022-09-10T06:01:16.257Z,5.47
2022-09-10T06:03:45.228Z,4.63
2022-09-10T06:06:13.445Z,3.85
2022-09-10T06:08:53.361Z,2.75
2022-09-10T06:11:49.228Z,1.65
2022-09-10T06:14:18.146Z,5.38
2022-09-10T06:16:46.518Z,2.70
2022-09-10T06:19:16.080Z,2.38
2022-09-10T06:21:43.924Z,8.25
2022-09-10T06:24:13.256Z,1.98
2022-09-10T06:26:43.916Z,3.63
2022-09-10T06:29:14.618Z,1.95
2022-09-10T06:31:43.041Z,4.18
2022-09-10T06:34:12.784Z,1.90
2022-09-10T06:36:41.503Z,5.45
2022-09-10T06:39:09.713Z,4.45
2022-09-10T06:41:49.760Z,1.80
2022-09-10T06:44:45.445Z,3.20
2022-09-10T06:48:18.848Z,3.42
2022-09-10T06:50:12.051Z,4.28
2022-09-10T06:52:41.836Z,4.00
2022-09-10T06:55:12.742Z,2.13
2022-09-10T06:57:51.285Z,4.22
2022-09-10T07:00:19.455Z,2.25
2022-09-10T07:02:53.176Z,3.38
2022-09-10T07:05:22.429Z,2.67
2022-09-10T07:07:51.365Z,2.05
2022-09-10T07:10:19.249Z,3.88
2022-09-10T07:12:47.338Z,3.92
2022-09-10T07:15:16.846Z,3.05
2022-09-10T07:17:45.378Z,1.58
2022-09-10T07:20:14.894Z,1.55
2022-09-10T07:22:46.806Z,2.95
2022-09-10T07:25:16.414Z,0.63
2022-09-10T07:28:15.725Z,2.60
2022-09-10T07:30:48.302Z,1.67
2022-09-10T07:33:19.994Z,3.72
2022-09-10T07:35:47.873Z,3.05
2022-09-10T07:38:17.177Z,1.73
2022-09-10T07:40:48.214Z,2.08
2022-09-10T07:43:17.372Z,1.83
2022-09-10T07:45:46.967Z,1.00
2022-09-10T07:48:15.213Z,0.95
2022-09-10T07:50:43.358Z,1.10
2022-09-10T07:53:13.515Z,1.20
2022-09-10T07:55:41.509Z,1.88
2022-09-10T07:58:10.163Z,1.88
2022-09-10T08:00:45.657Z,2.03
2022-09-10T08:03:18.524Z,2.88
2022-09-10T08:05:48.529Z,1.50
2022-09-10T08:08:16.360Z,1.45
2022-09-10T08:10:44.819Z,4.30
2022-09-10T08:13:12.882Z,1.00
2022-09-10T08:15:43.579Z,0.85
2022-09-10T08:18:13.492Z,2.03
2022-09-10T08:20:46.513Z,0.25
2022-09-10T08:23:15.400Z,0.55
2022-09-10T08:25:55.364Z,0.75
2022-09-10T08:28:26.093Z,0.80
2022-09-10T08:31:00.480Z,3.33
2022-09-10T08:33:28.745Z,0.88
2022-09-10T08:36:00.016Z,0.88
2022-09-10T08:38:31.877Z,1.10
2022-09-10T08:41:01.315Z,0.93
2022-09-10T08:43:36.990Z,1.08
2022-09-10T08:46:11.247Z,0.82
2022-09-10T08:49:08.160Z,0.55
2022-09-10T08:51:43.747Z,1.33
2022-09-10T08:54:16.662Z,0.60
2022-09-10T08:56:45.659Z,2.22
2022-09-10T08:59:22.280Z,0.43
2022-09-10T09:01:56.222Z,0.45
2022-09-10T09:04:33.351Z,3.35
2022-09-10T09:07:14.093Z,1.58
2022-09-10T09:09:44.229Z,0.98
2022-09-10T09:12:19.597Z,1.08
2022-09-10T09:14:59.697Z,1.77
2022-09-10T09:17:47.662Z,2.85
2022-09-10T09:20:18.294Z,5.63
2022-09-10T09:22:55.024Z,1.17
2022-09-10T09:25:34.280Z,0.90
2022-09-10T09:28:05.775Z,0.80
2022-09-10T09:30:49.961Z,1.38
2022-09-10T09:33:23.581Z,1.30
2022-09-10T09:35:57.874Z,3.42
2022-09-10T09:38:31.908Z,4.22
2022-09-10T09:41:07.226Z,4.65
2022-09-10T09:43:50.715Z,2.53
2022-09-10T09:46:21.271Z,2.35
2022-09-10T09:48:55.721Z,3.08
2022-09-10T09:51:27.814Z,3.70
2022-09-10T09:54:34.487Z,4.00
2022-09-10T09:56:51.987Z,2.45
2022-09-10T09:59:27.542Z,2.97
2022-09-10T10:01:56.408Z,2.15
2022-09-10T10:04:26.928Z,2.47
2022-09-10T10:06:57.396Z,2.80
2022-09-10T10:09:29.719Z,3.05
2022-09-10T10:11:59.660Z,2.85
2022-09-10T10:14:38.030Z,2.78
2022-09-10T10:17:34.714Z,4.10
2022-09-10T10:20:08.584Z,1.15
2022-09-10T10:22:38.255Z,2.05
2022-09-10T10:25:36.570Z,2.83
2022-09-10T10:28:05.308Z,2.75
2022-09-10T10:30:33.471Z,2.17
2022-09-10T10:33:03.145Z,4.30
2022-09-10T10:35:45.418Z,2.53
2022-09-10T10:38:34.316Z,3.83
2022-09-10T10:41:35.868Z,2.15
2022-09-10T10:44:23.316Z,4.15
2022-09-10T10:47:03.036Z,3.30
2022-09-10T10:49:46.235Z,2.15
2022-09-10T10:52:21.220Z,2.42
2022-09-10T10:55:10.093Z,3.35
2022-09-10T10:57:56.235Z,2.15
2022-09-10T11:00:24.950Z,1.73
2022-09-10T11:03:03.125Z,3.25
2022-09-10T11:05:35.123Z,2.78
2022-09-10T11:08:10.962Z,2.15
2022-09-10T11:10:43.469Z,2.90
2022-09-10T11:13:22.080Z,2.95
2022-09-10T11:15:59.393Z,2.58
2022-09-10T11:18:33.985Z,2.15
2022-09-10T11:21:08.671Z,2.30
2022-09-10T11:23:45.295Z,10.57
2022-09-10T11:26:19.296Z,2.70
2022-09-10T11:29:10.146Z,4.38
2022-09-10T11:31:43.052Z,4.63
2022-09-10T11:34:18.058Z,5.03
2022-09-10T11:36:50.464Z,2.80
2022-09-10T11:39:25.115Z,3.80
2022-09-10T11:41:55.994Z,3.33
2022-09-10T11:44:38.722Z,2.10
2022-09-10T11:47:18.475Z,2.60
2022-09-10T11:49:49.804Z,3.85
2022-09-10T11:52:19.660Z,3.28
2022-09-10T11:54:47.683Z,4.15
2022-09-10T11:57:26.336Z,2.58
2022-09-10T12:00:08.365Z,6.25
2022-09-10T12:03:07.787Z,4.15
2022-09-10T12:05:46.109Z,2.85
2022-09-10T12:08:26.837Z,2.90
2022-09-10T12:11:07.994Z,3.47
2022-09-10T12:13:39.358Z,1.23
2022-09-10T12:16:19.207Z,4.15
2022-09-10T12:18:53.552Z,1.50
2022-09-10T12:21:32.377Z,2.50
2022-09-10T12:24:04.076Z,4.95
2022-09-10T12:26:42.540Z,2.33
2022-09-10T12:29:30.531Z,2.30
2022-09-10T12:32:32.884Z,3.97
2022-09-10T12:35:42.899Z,2.20
2022-09-10T12:38:47.982Z,3.95
2022-09-10T12:41:49.543Z,5.22
2022-09-10T12:44:45.405Z,3.50
2022-09-10T12:47:53.061Z,2.75
2022-09-10T12:50:36.258Z,4.13
2022-09-10T12:53:36.106Z,4.88
2022-09-10T12:56:23.169Z,2.88
2022-09-10T12:59:07.488Z,2.95
2022-09-10T13:01:43.227Z,2.33
2022-09-10T13:04:24.504Z,2.97
2022-09-10T13:06:59.043Z,6.40
2022-09-10T13:09:31.084Z,2.88
2022-09-10T13:12:03.940Z,4.28
2022-09-10T13:14:36.009Z,3.20
2022-09-10T13:17:06.389Z,2.92
2022-09-10T13:19:55.347Z,4.72
2022-09-10T13:25:42.850Z,2.38
2022-09-10T13:28:48.597Z,3.95
2022-09-10T13:31:21.663Z,4.72
2022-09-10T13:34:34.193Z,3.25
2022-09-10T13:37:49.868Z,2.60
2022-09-10T13:40:43.210Z,3.45
2022-09-10T13:43:32.767Z,3.42
2022-09-10T13:46:04.167Z,6.25
2022-09-10T13:48:43.416Z,3.83
2022-09-10T13:51:21.405Z,4.00
2022-09-10T13:53:50.250Z,4.82
2022-09-10T13:56:23.954Z,4.47
2022-09-10T13:58:56.555Z,3.65
2022-09-10T14:01:49.192Z,3.78
2022-09-10T14:04:26.187Z,5.60
2022-09-10T14:06:58.266Z,3.90
2022-09-10T14:09:27.273Z,4.45
2022-09-10T14:11:56.139Z,7.65
2022-09-10T14:14:29.152Z,6.57
2022-09-10T14:17:03.627Z,6.97
2022-09-10T14:19:41.368Z,4.50
2022-09-10T14:22:16.405Z,6.20
2022-09-10T14:24:53.001Z,3.42
2022-09-10T14:27:25.973Z,6.18
2022-09-10T14:29:57.329Z,4.85
2022-09-10T14:32:33.141Z,3.38
2022-09-10T14:35:38.017Z,5.03
2022-09-10T14:38:21.196Z,3.25
2022-09-10T14:40:49.627Z,5.25
2022-09-10T14:43:28.307Z,2.83
2022-09-10T14:45:57.951Z,6.38
2022-09-10T14:48:32.452Z,5.55
2022-09-10T14:51:12.237Z,10.55
2022-09-10T14:53:41.295Z,4.20
2022-09-10T14:56:22.259Z,5.18
2022-09-10T14:58:57.404Z,4.70
2022-09-10T15:01:27.024Z,4.28
2022-09-10T15:03:54.814Z,6.00
2022-09-10T15:06:26.154Z,4.53
2022-09-10T15:08:55.894Z,6.13
2022-09-10T15:11:26.960Z,5.80
2022-09-10T15:13:56.700Z,4.57
2022-09-10T15:16:25.935Z,7.72
2022-09-10T15:18:53.648Z,4.20
2022-09-10T15:21:22.313Z,7.72
2022-09-10T15:23:50.146Z,6.45
2022-09-10T15:26:18.036Z,5.22
2022-09-10T15:28:46.008Z,4.82
2022-09-10T15:31:13.911Z,6.05
2022-09-10T15:33:43.590Z,4.85
2022-09-10T15:36:11.778Z,4.53
2022-09-10T15:38:39.898Z,7.50
2022-09-10T15:41:17.105Z,7.78
2022-09-10T15:43:45.527Z,5.18
2022-09-10T15:46:15.829Z,4.40
2022-09-10T15:48:47.461Z,6.28
2022-09-10T15:51:17.339Z,3.63
2022-09-10T15:53:46.195Z,5.40
2022-09-10T15:56:15.130Z,3.30
2022-09-10T15:58:48.581Z,6.95
2022-09-10T16:01:16.676Z,4.07
2022-09-10T16:03:51.599Z,4.15
2022-09-10T16:06:20.629Z,4.00
2022-09-10T16:08:49.943Z,5.60
2022-09-10T16:11:19.120Z,5.20
2022-09-10T16:13:47.716Z,3.92
2022-09-10T16:16:18.936Z,5.38
2022-09-10T16:18:49.069Z,3.67
2022-09-10T16:21:19.368Z,5.28
2022-09-10T16:23:48.319Z,4.30
2022-09-10T16:26:19.173Z,6.20
2022-09-10T16:28:50.175Z,5.72
2022-09-10T16:31:20.886Z,3.08
2022-09-10T16:33:54.622Z,3.40
2022-09-10T16:36:23.794Z,5.28
2022-09-10T16:38:54.738Z,5.95
2022-09-10T16:41:24.217Z,7.50
2022-09-10T16:43:56.736Z,3.63
2022-09-10T16:46:26.167Z,5.72
2022-09-10T16:48:56.718Z,5.60
2022-09-10T16:51:26.805Z,4.35
2022-09-10T16:53:56.884Z,3.92
2022-09-10T16:56:25.883Z,4.50
2022-09-10T16:58:53.961Z,4.10
2022-09-10T17:01:22.392Z,3.75
2022-09-10T17:03:54.013Z,5.63
2022-09-10T17:06:25.887Z,5.35
2022-09-10T17:30:56.227Z,5.97
2022-09-10T17:33:27.239Z,6.60
2022-09-10T17:35:58.187Z,5.88
2022-09-10T17:38:26.506Z,6.50
2022-09-10T17:40:56.901Z,5.43
2022-09-10T17:43:27.516Z,4.05
2022-09-10T17:45:58.176Z,3.97
2022-09-10T17:48:28.238Z,6.40
2022-09-10T17:51:06.969Z,4.25
2022-09-10T17:53:36.684Z,5.10
2022-09-10T17:56:06.014Z,7.70
2022-09-10T17:58:34.419Z,5.72
2022-09-10T18:01:07.908Z,3.35
2022-09-10T18:03:37.292Z,4.75
2022-09-10T18:06:07.568Z,4.70
2022-09-10T18:08:36.685Z,6.57
2022-09-10T18:11:05.827Z,5.03
2022-09-10T18:13:34.307Z,8.55
2022-09-10T18:16:07.820Z,5.70
2022-09-10T18:18:37.577Z,5.88
2022-09-10T18:21:13.506Z,20.70
2022-09-10T18:23:43.623Z,10.38
2022-09-10T18:26:13.228Z,11.70
2022-09-10T18:28:40.996Z,8.63
2022-09-10T18:31:10.827Z,9.55
2022-09-10T18:33:41.950Z,16.73
2022-09-10T18:36:14.878Z,12.38
2022-09-10T18:38:43.926Z,11.48
2022-09-10T18:41:22.925Z,9.00
2022-09-10T18:43:52.252Z,7.18
2022-09-10T18:46:22.340Z,7.85
2022-09-10T18:48:51.098Z,10.82
2022-09-10T18:51:21.507Z,8.20
2022-09-10T18:53:50.019Z,6.72
2022-09-10T18:56:23.284Z,8.15
2022-09-10T18:58:52.857Z,9.23
2022-09-10T19:01:23.796Z,8.48
2022-09-10T19:03:52.074Z,7.72
2022-09-10T19:06:24.741Z,6.28
2022-09-10T19:08:54.486Z,7.05
2022-09-10T19:11:24.585Z,6.05
2022-09-10T19:13:54.505Z,7.88
2022-09-10T19:16:27.174Z,9.80
2022-09-10T19:18:57.857Z,8.90
2022-09-10T19:21:27.003Z,8.07
2022-09-10T19:23:59.441Z,15.07
2022-09-10T19:26:29.763Z,6.85
2022-09-10T19:28:59.110Z,7.32
2022-09-10T19:31:31.052Z,9.20
2022-09-10T19:34:01.653Z,9.77
2022-09-10T19:36:31.665Z,8.27
2022-09-10T19:38:59.772Z,8.35
2022-09-10T19:41:28.802Z,8.55
2022-09-10T19:43:57.403Z,8.57
2022-09-10T19:46:28.317Z,9.07
2022-09-10T19:48:59.708Z,9.13
2022-09-10T19:51:30.254Z,8.88
2022-09-10T19:53:59.619Z,10.40
2022-09-10T19:56:31.254Z,11.10
2022-09-10T19:58:59.778Z,9.05
2022-09-10T20:01:31.182Z,9.60
2022-09-10T20:04:03.130Z,9.27
2022-09-10T20:06:33.499Z,10.30
2022-09-10T20:09:02.880Z,10.23
2022-09-10T20:11:33.724Z,12.63
2022-09-10T20:14:04.806Z,11.38
2022-09-10T20:16:33.088Z,12.10
2022-09-10T20:19:03.902Z,10.85
2022-09-10T20:21:32.314Z,12.23
2022-09-10T20:24:00.437Z,10.05
2022-09-10T20:26:33.458Z,9.98
2022-09-10T20:29:03.860Z,11.95
2022-09-10T20:31:34.516Z,11.32
2022-09-10T20:34:05.900Z,11.02
2022-09-10T20:36:35.745Z,12.93
2022-09-10T20:39:05.679Z,13.15
2022-09-10T20:41:35.899Z,13.52
2022-09-10T20:44:03.940Z,14.07
2022-09-10T20:46:32.574Z,13.52
2022-09-10T20:49:03.124Z,16.10
2022-09-10T20:51:35.148Z,15.50
2022-09-10T20:54:03.476Z,15.20
2022-09-10T20:56:31.975Z,16.33
2022-09-10T20:59:02.677Z,20.15
2022-09-10T21:01:32.226Z,14.88
2022-09-10T21:04:04.625Z,15.38
2022-09-10T21:06:36.532Z,14.00
2022-09-10T21:09:05.792Z,14.98
2022-09-10T21:11:43.883Z,16.40
2022-09-10T21:14:18.831Z,15.00
2022-09-10T21:16:47.459Z,15.55
2022-09-10T21:19:18.795Z,15.25
2022-09-10T21:21:49.786Z,15.18
2022-09-10T21:24:22.522Z,15.13
2022-09-10T21:26:51.108Z,14.35
2022-09-10T21:29:20.550Z,15.45
2022-09-10T21:31:50.607Z,15.18
2022-09-10T21:34:19.399Z,14.63
2022-09-10T21:36:49.151Z,15.90
2022-09-10T21:39:18.627Z,16.50
2022-09-10T21:41:49.584Z,17.70
2022-09-10T21:44:22.241Z,17.23
2022-09-10T21:46:51.255Z,15.38
2022-09-10T21:49:21.098Z,17.35
2022-09-10T21:51:50.589Z,15.77
2022-09-10T21:54:20.763Z,17.30
2022-09-10T21:56:50.239Z,16.02
2022-09-10T21:59:18.817Z,15.65
2022-09-10T22:01:47.936Z,15.85
2022-09-10T22:04:22.123Z,15.55
2022-09-10T22:06:53.945Z,17.60
2022-09-10T22:09:22.323Z,22.58
2022-09-10T22:11:53.139Z,15.63
2022-09-10T22:14:25.330Z,16.58
2022-09-10T22:16:54.026Z,17.17
2022-09-10T22:19:24.544Z,16.60
2022-09-10T22:21:56.748Z,16.02
2022-09-10T22:24:26.141Z,17.45
2022-09-10T22:26:54.816Z,17.17
2022-09-10T22:29:22.984Z,17.83
2022-09-10T22:31:51.148Z,15.85
2022-09-10T22:34:20.863Z,17.08
2022-09-10T22:36:49.819Z,17.83
2022-09-10T22:39:20.837Z,18.88
2022-09-10T22:41:50.157Z,18.50
2022-09-10T22:44:19.203Z,15.70
2022-09-10T22:46:47.703Z,16.38
2022-09-10T22:49:17.310Z,16.52
2022-09-10T22:51:45.929Z,17.52
2022-09-10T22:54:15.181Z,23.92
2022-09-10T22:56:45.476Z,16.95
2022-09-10T22:59:15.040Z,19.27
2022-09-10T23:01:47.409Z,17.65
2022-09-10T23:04:16.081Z,19.60
2022-09-10T23:06:44.351Z,18.00
2022-09-10T23:09:15.011Z,17.80
2022-09-10T23:11:45.625Z,17.42
2022-09-10T23:14:17.707Z,18.25
2022-09-10T23:16:47.681Z,18.95
2022-09-10T23:19:18.246Z,17.25
2022-09-10T23:21:48.177Z,17.48
2022-09-10T23:24:18.806Z,18.20
2022-09-10T23:26:48.293Z,18.30
2022-09-10T23:29:17.877Z,17.42
2022-09-10T23:31:47.340Z,18.00
2022-09-10T23:34:17.279Z,23.02
2022-09-10T23:36:47.110Z,19.70
2022-09-10T23:39:17.789Z,18.63
2022-09-10T23:41:45.818Z,17.75
2022-09-10T23:44:15.217Z,18.98
2022-09-10T23:46:44.649Z,15.52
2022-09-10T23:49:13.439Z,17.65
2022-09-10T23:51:41.963Z,17.73
2022-09-10T23:54:11.039Z,16.67
2022-09-10T23:56:40.096Z,18.15
2022-09-10T23:59:08.809Z,16.80
